createdAt,value
2018-02-13T00:00:49.962Z,0
2018-02-13T00:01:55.428Z,0
2018-02-13T00:03:00.880Z,0
2018-02-13T00:04:06.040Z,0
2018-02-13T00:05:11.519Z,0
2018-02-13T00:06:15.861Z,0
2018-02-13T00:07:21.307Z,0
2018-02-13T00:08:26.807Z,0
2018-02-13T00:09:32.715Z,0
2018-02-13T00:10:37.618Z,0
2018-02-13T00:11:43.092Z,0
2018-02-13T00:12:49.158Z,0
2018-02-13T00:13:54.337Z,0
2018-02-13T00:14:59.554Z,0
2018-02-13T00:16:05.174Z,0
2018-02-13T00:17:09.794Z,0
2018-02-13T00:18:14.982Z,0
2018-02-13T00:19:20.416Z,0
2018-02-13T00:20:25.619Z,0
2018-02-13T00:21:31.359Z,0
2018-02-13T00:22:36.837Z,0
2018-02-13T00:23:42.298Z,0
2018-02-13T00:24:48.175Z,0
2018-02-13T00:25:53.367Z,0
2018-02-13T00:26:58.546Z,0
2018-02-13T00:28:04.538Z,0
2018-02-13T00:29:09.424Z,0
2018-02-13T00:30:14.606Z,0
2018-02-13T00:31:19.462Z,0
2018-02-13T00:32:24.933Z,0
2018-02-13T00:33:30.816Z,0
2018-02-13T00:34:36.286Z,0
2018-02-13T00:35:41.473Z,0
2018-02-13T00:36:46.935Z,0
2018-02-13T00:37:52.397Z,0
2018-02-13T00:38:57.593Z,0
2018-02-13T00:40:03.518Z,0
2018-02-13T00:41:08.701Z,0
2018-02-13T00:42:13.881Z,0
2018-02-13T00:43:19.313Z,0
2018-02-13T00:44:24.784Z,0
2018-02-13T00:45:29.844Z,0
2018-02-13T00:46:35.300Z,0
2018-02-13T00:47:40.802Z,0
2018-02-13T00:48:46.335Z,0
2018-02-13T00:49:51.245Z,0
2018-02-13T00:50:56.733Z,0
2018-02-13T00:52:02.071Z,0
2018-02-13T00:53:07.256Z,0
2018-02-13T00:54:12.482Z,0
2018-02-13T00:55:18.397Z,0
2018-02-13T00:56:23.858Z,0
2018-02-13T00:57:29.744Z,0
2018-02-13T00:58:35.216Z,0
2018-02-13T00:59:40.692Z,0
2018-02-13T01:00:46.120Z,0
2018-02-13T01:01:51.612Z,0
2018-02-13T01:02:57.043Z,0
2018-02-13T01:04:02.796Z,0
2018-02-13T01:05:07.686Z,0
2018-02-13T01:06:13.157Z,0
2018-02-13T01:07:18.046Z,0
2018-02-13T01:08:23.243Z,0
2018-02-13T01:09:28.706Z,0
2018-02-13T01:10:33.887Z,0
2018-02-13T01:11:38.512Z,0
2018-02-13T01:12:44.592Z,0
2018-02-13T01:13:49.778Z,0
2018-02-13T01:14:54.704Z,0
2018-02-13T01:16:00.229Z,0
2018-02-13T01:17:05.421Z,0
2018-02-13T01:18:10.614Z,0
2018-02-13T01:19:16.455Z,0
2018-02-13T01:20:21.946Z,0
2018-02-13T01:21:27.391Z,0
2018-02-13T01:22:32.614Z,0
2018-02-13T01:23:38.097Z,0
2018-02-13T01:24:43.856Z,0
2018-02-13T01:25:48.463Z,0
2018-02-13T01:26:53.919Z,0
2018-02-13T01:27:59.650Z,0
2018-02-13T01:29:04.578Z,0
2018-02-13T01:30:09.760Z,0
2018-02-13T01:31:15.293Z,0
2018-02-13T01:32:20.199Z,0
2018-02-13T01:33:40.726Z,0
2018-02-13T01:34:45.908Z,0
2018-02-13T01:35:51.090Z,0
2018-02-13T01:36:55.962Z,0
2018-02-13T01:38:00.871Z,0
2018-02-13T01:39:06.043Z,0
2018-02-13T01:40:11.762Z,0
2018-02-13T01:41:16.950Z,0
2018-02-13T01:42:22.421Z,0
2018-02-13T01:43:28.399Z,0
2018-02-13T01:44:33.880Z,0
2018-02-13T01:45:40.261Z,0
2018-02-13T01:46:45.738Z,0
2018-02-13T01:47:50.925Z,0
2018-02-13T01:48:56.380Z,0
2018-02-13T01:50:01.296Z,0
2018-02-13T01:51:06.491Z,0
2018-02-13T01:52:11.786Z,0
2018-02-13T01:53:16.982Z,0
2018-02-13T01:54:22.457Z,0
2018-02-13T01:55:28.327Z,0
2018-02-13T01:56:33.796Z,0
2018-02-13T01:57:39.707Z,0
2018-02-13T01:58:44.897Z,0
2018-02-13T01:59:50.554Z,0
2018-02-13T02:00:56.293Z,0
2018-02-13T02:02:00.919Z,0
2018-02-13T02:03:06.416Z,0
2018-02-13T02:04:11.679Z,0
2018-02-13T02:05:16.862Z,0
2018-02-13T02:06:22.074Z,0
2018-02-13T02:07:27.789Z,0
2018-02-13T02:08:32.998Z,0
2018-02-13T02:09:38.581Z,0
2018-02-13T02:10:44.040Z,0
2018-02-13T02:11:49.245Z,0
2018-02-13T02:12:54.583Z,0
2018-02-13T02:13:59.781Z,0
2018-02-13T02:15:04.981Z,0
2018-02-13T02:16:10.149Z,0
2018-02-13T02:17:15.071Z,0
2018-02-13T02:18:20.532Z,0
2018-02-13T02:19:40.744Z,0
2018-02-13T02:20:45.936Z,0
2018-02-13T02:21:51.521Z,0
2018-02-13T02:22:57.003Z,0
2018-02-13T02:24:01.623Z,0
2018-02-13T02:25:07.056Z,0
2018-02-13T02:26:12.237Z,0
2018-02-13T02:27:17.148Z,0
2018-02-13T02:28:22.861Z,0
2018-02-13T02:29:28.337Z,0
2018-02-13T02:30:33.977Z,0
2018-02-13T02:31:39.154Z,0
2018-02-13T02:32:44.615Z,0
2018-02-13T02:33:50.187Z,0
2018-02-13T02:34:55.390Z,0
2018-02-13T02:36:00.874Z,0
2018-02-13T02:37:06.034Z,0
2018-02-13T02:38:11.208Z,0
2018-02-13T02:39:16.419Z,0
2018-02-13T02:40:22.255Z,0
2018-02-13T02:41:27.440Z,0
2018-02-13T02:42:33.099Z,0
2018-02-13T02:43:38.576Z,0
2018-02-13T02:44:44.050Z,0
2018-02-13T02:45:49.480Z,0
2018-02-13T02:46:54.960Z,0
2018-02-13T02:48:00.419Z,0
2018-02-13T02:49:05.293Z,0
2018-02-13T02:50:10.481Z,0
2018-02-13T02:51:15.667Z,0
2018-02-13T02:52:21.519Z,0
2018-02-13T02:53:26.982Z,0
2018-02-13T02:54:31.851Z,0
2018-02-13T02:55:37.052Z,0
2018-02-13T02:56:41.947Z,0
2018-02-13T02:57:47.723Z,0
2018-02-13T02:58:53.181Z,0
2018-02-13T02:59:58.380Z,0
2018-02-13T03:01:03.527Z,0
2018-02-13T03:02:08.448Z,0
2018-02-13T03:03:13.654Z,0
2018-02-13T03:04:19.480Z,0
2018-02-13T03:05:24.680Z,0
2018-02-13T03:06:30.447Z,0
2018-02-13T03:07:35.618Z,0
2018-02-13T03:08:40.801Z,0
2018-02-13T03:09:46.529Z,0
2018-02-13T03:10:52.007Z,0
2018-02-13T03:11:57.484Z,0
2018-02-13T03:13:03.183Z,0
2018-02-13T03:14:08.660Z,0
2018-02-13T03:15:13.843Z,0
2018-02-13T03:16:19.573Z,0
2018-02-13T03:17:24.743Z,0
2018-02-13T03:18:30.831Z,0
2018-02-13T03:19:36.012Z,0
2018-02-13T03:20:41.489Z,0
2018-02-13T03:21:47.214Z,0
2018-02-13T03:22:52.726Z,0
2018-02-13T03:23:57.590Z,0
2018-02-13T03:25:03.308Z,0
2018-02-13T03:26:07.937Z,0
2018-02-13T03:27:12.562Z,0
2018-02-13T03:28:18.272Z,0
2018-02-13T03:29:23.445Z,0
2018-02-13T03:30:29.219Z,0
2018-02-13T03:31:34.679Z,0
2018-02-13T03:32:40.198Z,0
2018-02-13T03:33:45.751Z,0
2018-02-13T03:34:51.236Z,0
2018-02-13T03:35:56.711Z,0
2018-02-13T03:37:02.616Z,0
2018-02-13T03:38:06.937Z,0
2018-02-13T03:39:11.848Z,0
2018-02-13T03:40:17.676Z,0
2018-02-13T03:41:22.879Z,0
2018-02-13T03:42:28.846Z,0
2018-02-13T03:43:34.072Z,0
2018-02-13T03:44:39.251Z,0
2018-02-13T03:45:44.402Z,0
2018-02-13T03:46:49.592Z,0
2018-02-13T03:47:55.047Z,0
2018-02-13T03:49:00.482Z,0
2018-02-13T03:50:05.682Z,0
2018-02-13T03:51:11.167Z,0
2018-02-13T03:52:16.751Z,0
2018-02-13T03:53:22.198Z,0
2018-02-13T03:54:28.278Z,0
2018-02-13T03:55:33.192Z,0
2018-02-13T03:56:38.671Z,0
2018-02-13T03:57:44.374Z,0
2018-02-13T03:58:49.849Z,0
2018-02-13T03:59:55.014Z,0
2018-02-13T04:01:00.810Z,0
2018-02-13T04:02:05.717Z,0
2018-02-13T04:03:11.188Z,0
2018-02-13T04:04:16.913Z,0
2018-02-13T04:05:22.116Z,0
2018-02-13T04:06:27.719Z,0
2018-02-13T04:07:32.906Z,0
2018-02-13T04:08:38.357Z,0
2018-02-13T04:09:43.936Z,0
2018-02-13T04:10:49.404Z,0
2018-02-13T04:11:54.865Z,0
2018-02-13T04:13:00.454Z,0
2018-02-13T04:14:05.657Z,0
2018-02-13T04:15:10.852Z,0
2018-02-13T04:16:16.018Z,0
2018-02-13T04:17:21.506Z,0
2018-02-13T04:18:27.251Z,0
2018-02-13T04:19:32.712Z,0
2018-02-13T04:20:38.186Z,0
2018-02-13T04:21:44.059Z,0
2018-02-13T04:22:49.513Z,0
2018-02-13T04:23:54.968Z,0
2018-02-13T04:25:00.789Z,0
2018-02-13T04:26:05.974Z,0
2018-02-13T04:27:10.895Z,0
2018-02-13T04:28:16.479Z,0
2018-02-13T04:29:21.963Z,0
2018-02-13T04:30:27.030Z,0
2018-02-13T04:31:32.227Z,0
2018-02-13T04:32:37.717Z,0
2018-02-13T04:33:42.865Z,0
2018-02-13T04:34:48.331Z,0
2018-02-13T04:35:53.794Z,0
2018-02-13T04:36:59.367Z,0
2018-02-13T04:38:04.589Z,0
2018-02-13T04:39:09.761Z,0
2018-02-13T04:40:15.205Z,0
2018-02-13T04:41:20.374Z,0
2018-02-13T04:42:40.551Z,0
2018-02-13T04:43:45.731Z,0
2018-02-13T04:44:50.906Z,0
2018-02-13T04:45:56.615Z,0
2018-02-13T04:47:01.795Z,0
2018-02-13T04:48:06.990Z,0
2018-02-13T04:49:12.142Z,0
2018-02-13T04:50:17.346Z,0
2018-02-13T04:51:22.247Z,0
2018-02-13T04:52:28.028Z,0
2018-02-13T04:53:33.512Z,0
2018-02-13T04:54:39.395Z,0
2018-02-13T04:55:44.846Z,0
2018-02-13T04:56:50.333Z,0
2018-02-13T04:57:55.426Z,0
2018-02-13T04:59:00.888Z,0
2018-02-13T05:00:06.355Z,0
2018-02-13T05:01:12.181Z,0
2018-02-13T05:02:17.118Z,0
2018-02-13T05:03:22.013Z,0
2018-02-13T05:04:27.198Z,0
2018-02-13T05:05:32.877Z,0
2018-02-13T05:06:38.796Z,0
2018-02-13T05:07:43.964Z,0
2018-02-13T05:08:48.862Z,0
2018-02-13T05:09:54.579Z,0
2018-02-13T05:11:00.056Z,0
2018-02-13T05:12:05.600Z,0
2018-02-13T05:13:11.416Z,0
2018-02-13T05:14:16.608Z,0
2018-02-13T05:15:21.847Z,0
2018-02-13T05:16:27.693Z,0
2018-02-13T05:17:32.889Z,0
2018-02-13T05:18:38.746Z,0
2018-02-13T05:19:44.384Z,0
2018-02-13T05:20:49.625Z,0
2018-02-13T05:21:55.766Z,0
2018-02-13T05:23:01.001Z,0
2018-02-13T05:24:06.484Z,0
2018-02-13T05:25:12.279Z,0
2018-02-13T05:26:17.742Z,0
2018-02-13T05:27:22.639Z,0
2018-02-13T05:28:28.706Z,0
2018-02-13T05:29:33.890Z,0
2018-02-13T05:30:39.622Z,0
2018-02-13T05:31:45.131Z,0
2018-02-13T05:32:50.311Z,0
2018-02-13T05:33:56.046Z,0
2018-02-13T05:35:01.250Z,0
2018-02-13T05:36:06.157Z,0
2018-02-13T05:37:11.124Z,0
2018-02-13T05:38:16.306Z,0
2018-02-13T05:39:21.795Z,0
2018-02-13T05:40:27.695Z,0
2018-02-13T05:41:33.158Z,0
2018-02-13T05:42:38.882Z,0
2018-02-13T05:43:44.634Z,0
2018-02-13T05:44:50.105Z,0
2018-02-13T05:45:55.864Z,0
2018-02-13T05:47:00.829Z,0
2018-02-13T05:48:06.074Z,0
2018-02-13T05:49:10.971Z,0
2018-02-13T05:50:16.440Z,0
2018-02-13T05:51:21.905Z,0
2018-02-13T05:52:27.232Z,0
2018-02-13T05:53:32.699Z,0
2018-02-13T05:54:38.129Z,0
2018-02-13T05:55:43.334Z,0
2018-02-13T05:56:48.797Z,0
2018-02-13T05:57:53.957Z,0
2018-02-13T05:58:59.451Z,0
2018-02-13T06:00:04.704Z,0
2018-02-13T06:01:10.626Z,0
2018-02-13T06:02:16.101Z,0
2018-02-13T06:03:21.587Z,0
2018-02-13T06:04:27.662Z,0
2018-02-13T06:05:33.114Z,0
2018-02-13T06:06:38.368Z,0
2018-02-13T06:07:43.554Z,0
2018-02-13T06:08:49.039Z,0
2018-02-13T06:09:54.226Z,0
2018-02-13T06:10:59.130Z,0
2018-02-13T06:12:04.603Z,0
2018-02-13T06:13:10.258Z,0
2018-02-13T06:14:15.750Z,0
2018-02-13T06:15:20.637Z,0
2018-02-13T06:16:40.714Z,0
2018-02-13T06:17:45.603Z,0
2018-02-13T06:18:51.334Z,0
2018-02-13T06:19:56.506Z,0
2018-02-13T06:21:01.961Z,0
2018-02-13T06:22:07.405Z,0
2018-02-13T06:23:12.317Z,0
2018-02-13T06:24:17.778Z,0
2018-02-13T06:25:22.954Z,0
2018-02-13T06:26:28.188Z,0
2018-02-13T06:27:33.819Z,0
2018-02-13T06:28:38.726Z,0
2018-02-13T06:29:44.251Z,0
2018-02-13T06:30:49.484Z,0
2018-02-13T06:31:54.954Z,0
2018-02-13T06:33:00.191Z,0
2018-02-13T06:34:05.684Z,0
2018-02-13T06:35:10.873Z,0
2018-02-13T06:36:16.074Z,0
2018-02-13T06:37:21.805Z,0
2018-02-13T06:38:26.966Z,0
2018-02-13T06:39:32.389Z,0
2018-02-13T06:40:37.641Z,0
2018-02-13T06:41:42.285Z,0
2018-02-13T06:42:48.184Z,0
2018-02-13T06:43:53.694Z,0
2018-02-13T06:44:58.878Z,0
2018-02-13T06:46:04.450Z,0
2018-02-13T06:47:09.626Z,0
2018-02-13T06:48:14.847Z,0
2018-02-13T06:49:20.477Z,0
2018-02-13T06:50:25.960Z,0
2018-02-13T06:51:31.825Z,0
2018-02-13T06:52:37.012Z,0
2018-02-13T06:53:41.904Z,0
2018-02-13T06:54:47.629Z,0
2018-02-13T06:55:52.802Z,0
2018-02-13T06:56:58.315Z,0
2018-02-13T06:58:03.782Z,0
2018-02-13T06:59:09.300Z,0
2018-02-13T07:00:14.477Z,0
2018-02-13T07:01:20.153Z,0
2018-02-13T07:02:25.065Z,0
2018-02-13T07:03:30.472Z,0
2018-02-13T07:04:35.950Z,0
2018-02-13T07:05:41.476Z,0
2018-02-13T07:06:47.189Z,0
2018-02-13T07:07:52.394Z,0
2018-02-13T07:08:57.781Z,0
2018-02-13T07:10:03.499Z,0
2018-02-13T07:11:09.002Z,0
2018-02-13T07:12:13.906Z,0
2018-02-13T07:13:18.912Z,0
2018-02-13T07:14:24.329Z,0
2018-02-13T07:15:29.685Z,0
2018-02-13T07:16:34.669Z,0
2018-02-13T07:17:39.911Z,0
2018-02-13T07:18:45.359Z,0
2018-02-13T07:19:50.563Z,0
2018-02-13T07:20:55.766Z,0
2018-02-13T07:22:00.697Z,0
2018-02-13T07:23:05.884Z,0
2018-02-13T07:24:11.338Z,0
2018-02-13T07:25:16.814Z,0
2018-02-13T07:26:21.975Z,0
2018-02-13T07:27:27.663Z,0
2018-02-13T07:28:32.856Z,6
2018-02-13T07:29:38.027Z,6
2018-02-13T07:30:43.846Z,6
2018-02-13T07:31:49.312Z,6
2018-02-13T07:32:54.234Z,6
2018-02-13T07:33:59.990Z,24
2018-02-13T07:35:04.912Z,24
2018-02-13T07:36:10.103Z,24
2018-02-13T07:37:15.305Z,24
2018-02-13T07:38:20.490Z,24
2018-02-13T07:39:41.002Z,24
2018-02-13T07:40:46.463Z,24
2018-02-13T07:41:51.675Z,24
2018-02-13T07:42:57.233Z,24
2018-02-13T07:44:02.118Z,24
2018-02-13T07:45:07.603Z,24
2018-02-13T07:46:12.761Z,24
2018-02-13T07:47:18.228Z,24
2018-02-13T07:48:23.696Z,24
2018-02-13T07:49:43.881Z,24
2018-02-13T07:50:48.796Z,40
2018-02-13T07:51:54.523Z,40
2018-02-13T07:52:59.999Z,40
2018-02-13T07:54:05.489Z,40
2018-02-13T07:55:10.944Z,40
2018-02-13T07:56:16.150Z,13
2018-02-13T07:57:21.850Z,13
2018-02-13T07:58:27.119Z,13
2018-02-13T07:59:32.053Z,31
2018-02-13T08:00:37.647Z,31
2018-02-13T08:01:43.112Z,31
2018-02-13T08:02:48.280Z,31
2018-02-13T08:03:54.006Z,31
2018-02-13T08:04:59.472Z,31
2018-02-13T08:06:04.120Z,31
2018-02-13T08:07:09.268Z,31
2018-02-13T08:08:14.361Z,31
2018-02-13T08:09:19.835Z,48
2018-02-13T08:10:25.387Z,48
2018-02-13T08:11:30.593Z,48
2018-02-13T08:12:36.033Z,48
2018-02-13T08:13:41.204Z,48
2018-02-13T08:14:46.389Z,48
2018-02-13T08:15:52.201Z,48
2018-02-13T08:16:57.678Z,64
2018-02-13T08:18:02.896Z,64
2018-02-13T08:19:08.008Z,64
2018-02-13T08:20:13.554Z,37
2018-02-13T08:21:19.008Z,37
2018-02-13T08:22:24.593Z,37
2018-02-13T08:23:29.816Z,37
2018-02-13T08:24:34.946Z,55
2018-02-13T08:25:40.428Z,55
2018-02-13T08:26:45.907Z,55
2018-02-13T08:27:51.847Z,55
2018-02-13T08:28:56.471Z,55
2018-02-13T08:30:01.654Z,55
2018-02-13T08:31:07.106Z,55
2018-02-13T08:32:12.024Z,55
2018-02-13T08:33:17.204Z,72
2018-02-13T08:34:22.641Z,72
2018-02-13T08:35:27.266Z,72
2018-02-13T08:36:32.862Z,72
2018-02-13T08:37:37.768Z,72
2018-02-13T08:38:42.958Z,72
2018-02-13T08:39:48.025Z,72
2018-02-13T08:40:53.720Z,72
2018-02-13T08:41:58.908Z,72
2018-02-13T08:43:04.351Z,72
2018-02-13T08:44:09.262Z,72
2018-02-13T08:45:14.447Z,72
2018-02-13T08:46:20.162Z,62
2018-02-13T08:47:25.350Z,62
2018-02-13T08:48:30.509Z,62
2018-02-13T08:49:35.694Z,62
2018-02-13T08:50:40.883Z,62
2018-02-13T08:51:46.354Z,62
2018-02-13T08:52:51.254Z,62
2018-02-13T08:53:56.481Z,62
2018-02-13T08:55:01.965Z,62
2018-02-13T08:56:06.867Z,62
2018-02-13T08:57:12.354Z,62
2018-02-13T08:58:17.831Z,62
2018-02-13T08:59:23.006Z,62
2018-02-13T09:00:28.913Z,62
2018-02-13T09:01:34.102Z,79
2018-02-13T09:02:39.574Z,79
2018-02-13T09:03:44.732Z,79
2018-02-13T09:04:49.659Z,79
2018-02-13T09:05:54.578Z,79
2018-02-13T09:07:00.118Z,79
2018-02-13T09:08:05.588Z,79
2018-02-13T09:09:10.487Z,79
2018-02-13T09:10:15.952Z,79
2018-02-13T09:11:21.416Z,79
2018-02-13T09:12:27.159Z,79
2018-02-13T09:13:32.629Z,79
2018-02-13T09:14:38.159Z,79
2018-02-13T09:15:43.070Z,79
2018-02-13T09:16:47.974Z,79
2018-02-13T09:17:53.436Z,79
2018-02-13T09:18:59.182Z,79
2018-02-13T09:20:04.675Z,79
2018-02-13T09:21:09.861Z,79
2018-02-13T09:22:15.321Z,79
2018-02-13T09:23:20.253Z,79
2018-02-13T09:24:40.359Z,95
2018-02-13T09:25:45.271Z,95
2018-02-13T09:26:50.725Z,95
2018-02-13T09:27:55.869Z,95
2018-02-13T09:29:01.336Z,95
2018-02-13T09:30:06.243Z,95
2018-02-13T09:31:11.673Z,95
2018-02-13T09:32:16.343Z,95
2018-02-13T09:33:21.817Z,95
2018-02-13T09:34:27.299Z,95
2018-02-13T09:35:32.779Z,95
2018-02-13T09:36:38.061Z,95
2018-02-13T09:37:43.522Z,95
2018-02-13T09:38:48.937Z,95
2018-02-13T09:39:54.165Z,95
2018-02-13T09:40:59.650Z,95
2018-02-13T09:42:04.549Z,112
2018-02-13T09:43:09.726Z,86
2018-02-13T09:44:14.900Z,86
2018-02-13T09:45:19.803Z,86
2018-02-13T09:46:25.007Z,86
2018-02-13T09:47:30.183Z,86
2018-02-13T09:48:35.977Z,86
2018-02-13T09:49:41.187Z,86
2018-02-13T09:50:46.113Z,86
2018-02-13T09:51:51.599Z,86
2018-02-13T09:52:56.211Z,86
2018-02-13T09:54:01.396Z,86
2018-02-13T09:55:06.295Z,86
2018-02-13T09:56:11.204Z,86
2018-02-13T09:57:16.385Z,86
2018-02-13T09:58:22.144Z,86
2018-02-13T09:59:27.098Z,86
2018-02-13T10:00:32.793Z,103
2018-02-13T10:01:38.201Z,103
2018-02-13T10:02:43.114Z,103
2018-02-13T10:03:48.590Z,103
2018-02-13T10:04:53.200Z,103
2018-02-13T10:05:58.090Z,103
2018-02-13T10:07:04.056Z,103
2018-02-13T10:08:08.961Z,103
2018-02-13T10:09:13.882Z,103
2018-02-13T10:10:19.652Z,103
2018-02-13T10:11:25.144Z,103
2018-02-13T10:12:30.997Z,103
2018-02-13T10:13:36.471Z,103
2018-02-13T10:14:41.935Z,119
2018-02-13T10:15:47.738Z,119
2018-02-13T10:16:53.213Z,119
2018-02-13T10:17:57.845Z,119
2018-02-13T10:19:03.340Z,119
2018-02-13T10:20:08.716Z,119
2018-02-13T10:21:13.346Z,119
2018-02-13T10:22:19.134Z,119
2018-02-13T10:23:24.334Z,119
2018-02-13T10:24:29.257Z,119
2018-02-13T10:25:34.740Z,119
2018-02-13T10:26:39.944Z,119
2018-02-13T10:27:45.714Z,103
2018-02-13T10:28:50.891Z,119
2018-02-13T10:29:56.103Z,119
2018-02-13T10:31:01.872Z,119
2018-02-13T10:32:07.225Z,136
2018-02-13T10:33:12.138Z,136
2018-02-13T10:34:17.728Z,136
2018-02-13T10:35:22.369Z,136
2018-02-13T10:36:28.147Z,136
2018-02-13T10:37:33.641Z,110
2018-02-13T10:38:39.097Z,110
2018-02-13T10:39:44.331Z,110
2018-02-13T10:40:49.820Z,110
2018-02-13T10:41:54.905Z,136
2018-02-13T10:43:00.905Z,110
2018-02-13T10:44:06.369Z,136
2018-02-13T10:45:11.904Z,136
2018-02-13T10:46:17.274Z,136
2018-02-13T10:47:22.471Z,136
2018-02-13T10:48:27.306Z,136
2018-02-13T10:49:32.759Z,136
2018-02-13T10:50:38.224Z,136
2018-02-13T10:51:43.126Z,136
2018-02-13T10:52:48.314Z,136
2018-02-13T10:53:53.506Z,136
2018-02-13T10:54:59.433Z,119
2018-02-13T10:56:04.337Z,136
2018-02-13T10:57:08.970Z,119
2018-02-13T10:58:14.856Z,119
2018-02-13T10:59:20.024Z,119
2018-02-13T11:00:39.867Z,119
2018-02-13T11:01:45.362Z,119
2018-02-13T11:02:50.538Z,119
2018-02-13T11:03:56.339Z,119
2018-02-13T11:05:01.510Z,119
2018-02-13T11:06:06.705Z,119
2018-02-13T11:07:11.902Z,119
2018-02-13T11:08:16.511Z,119
2018-02-13T11:09:21.975Z,119
2018-02-13T11:10:27.198Z,119
2018-02-13T11:11:32.660Z,119
2018-02-13T11:12:38.564Z,119
2018-02-13T11:13:43.488Z,119
2018-02-13T11:14:49.136Z,119
2018-02-13T11:15:54.336Z,119
2018-02-13T11:16:58.969Z,119
2018-02-13T11:18:04.194Z,119
2018-02-13T11:19:10.176Z,119
2018-02-13T11:20:15.360Z,119
2018-02-13T11:21:20.160Z,119
2018-02-13T11:22:25.661Z,119
2018-02-13T11:23:30.552Z,119
2018-02-13T11:24:36.692Z,119
2018-02-13T11:25:42.165Z,119
2018-02-13T11:26:47.558Z,119
2018-02-13T11:27:53.036Z,119
2018-02-13T11:28:58.429Z,119
2018-02-13T11:30:03.621Z,119
2018-02-13T11:31:08.847Z,119
2018-02-13T11:32:14.320Z,103
2018-02-13T11:33:19.805Z,119
2018-02-13T11:34:25.322Z,119
2018-02-13T11:35:30.521Z,103
2018-02-13T11:36:36.319Z,103
2018-02-13T11:37:41.505Z,103
2018-02-13T11:38:46.966Z,103
2018-02-13T11:39:52.756Z,103
2018-02-13T11:40:58.241Z,103
2018-02-13T11:42:03.712Z,103
2018-02-13T11:43:09.471Z,103
2018-02-13T11:44:14.646Z,103
2018-02-13T11:45:19.838Z,103
2018-02-13T11:46:25.062Z,103
2018-02-13T11:47:30.649Z,119
2018-02-13T11:48:35.862Z,119
2018-02-13T11:49:41.045Z,119
2018-02-13T11:50:46.231Z,119
2018-02-13T11:51:51.820Z,119
2018-02-13T11:52:56.913Z,119
2018-02-13T11:54:01.830Z,119
2018-02-13T11:55:07.579Z,119
2018-02-13T11:56:13.049Z,119
2018-02-13T11:57:18.512Z,119
2018-02-13T11:58:23.998Z,119
2018-02-13T11:59:28.919Z,119
2018-02-13T12:00:33.881Z,119
2018-02-13T12:01:39.071Z,92
2018-02-13T12:02:44.544Z,110
2018-02-13T12:03:50.360Z,92
2018-02-13T12:04:55.811Z,110
2018-02-13T12:06:00.730Z,110
2018-02-13T12:07:06.055Z,110
2018-02-13T12:08:11.325Z,110
2018-02-13T12:09:16.543Z,110
2018-02-13T12:10:22.183Z,110
2018-02-13T12:11:27.379Z,110
2018-02-13T12:12:32.672Z,110
2018-02-13T12:13:37.853Z,110
2018-02-13T12:14:43.054Z,110
2018-02-13T12:15:48.589Z,110
2018-02-13T12:16:54.064Z,110
2018-02-13T12:17:58.975Z,110
2018-02-13T12:19:04.208Z,92
2018-02-13T12:20:09.672Z,119
2018-02-13T12:21:15.305Z,119
2018-02-13T12:22:20.882Z,119
2018-02-13T12:23:26.281Z,119
2018-02-13T12:24:31.773Z,119
2018-02-13T12:25:36.963Z,119
2018-02-13T12:26:42.439Z,119
2018-02-13T12:27:47.635Z,92
2018-02-13T12:28:52.829Z,92
2018-02-13T12:29:57.188Z,110
2018-02-13T12:31:02.588Z,110
2018-02-13T12:32:06.921Z,110
2018-02-13T12:33:12.330Z,119
2018-02-13T12:34:17.815Z,119
2018-02-13T12:35:22.755Z,119
2018-02-13T12:36:27.960Z,103
2018-02-13T12:37:33.139Z,103
2018-02-13T12:38:38.594Z,103
2018-02-13T12:39:44.357Z,103
2018-02-13T12:40:49.531Z,103
2018-02-13T12:41:55.000Z,103
2018-02-13T12:43:00.311Z,103
2018-02-13T12:44:05.504Z,119
2018-02-13T12:45:10.992Z,119
2018-02-13T12:46:16.579Z,103
2018-02-13T12:47:21.953Z,103
2018-02-13T12:48:27.641Z,103
2018-02-13T12:49:32.546Z,103
2018-02-13T12:50:38.013Z,103
2018-02-13T12:51:43.497Z,103
2018-02-13T12:52:48.964Z,119
2018-02-13T12:53:54.357Z,119
2018-02-13T12:54:59.273Z,119
2018-02-13T12:56:04.486Z,119
2018-02-13T12:57:09.391Z,103
2018-02-13T12:58:14.867Z,103
2018-02-13T12:59:20.072Z,103
2018-02-13T13:00:25.987Z,103
2018-02-13T13:01:30.797Z,103
2018-02-13T13:02:36.252Z,103
2018-02-13T13:03:41.739Z,103
2018-02-13T13:04:47.226Z,103
2018-02-13T13:05:52.696Z,103
2018-02-13T13:06:58.412Z,103
2018-02-13T13:08:03.592Z,103
2018-02-13T13:09:08.224Z,103
2018-02-13T13:10:14.026Z,103
2018-02-13T13:11:19.532Z,103
2018-02-13T13:12:40.097Z,103
2018-02-13T13:13:45.306Z,103
2018-02-13T13:14:50.793Z,103
2018-02-13T13:15:55.704Z,103
2018-02-13T13:17:01.171Z,103
2018-02-13T13:18:06.680Z,103
2018-02-13T13:19:12.302Z,103
2018-02-13T13:20:17.771Z,103
2018-02-13T13:21:23.295Z,103
2018-02-13T13:22:28.107Z,103
2018-02-13T13:23:33.290Z,103
2018-02-13T13:24:38.613Z,103
2018-02-13T13:25:44.070Z,103
2018-02-13T13:26:49.455Z,103
2018-02-13T13:27:54.774Z,103
2018-02-13T13:29:00.247Z,86
2018-02-13T13:30:05.189Z,86
2018-02-13T13:31:10.793Z,86
2018-02-13T13:32:16.880Z,86
2018-02-13T13:33:22.060Z,86
2018-02-13T13:34:27.753Z,112
2018-02-13T13:35:32.652Z,95
2018-02-13T13:36:38.170Z,95
2018-02-13T13:37:43.676Z,95
2018-02-13T13:38:49.155Z,95
2018-02-13T13:39:54.353Z,95
2018-02-13T13:40:59.258Z,95
2018-02-13T13:42:04.164Z,95
2018-02-13T13:43:09.623Z,95
2018-02-13T13:44:14.838Z,79
2018-02-13T13:45:19.447Z,79
2018-02-13T13:46:24.633Z,79
2018-02-13T13:47:30.114Z,79
2018-02-13T13:48:35.605Z,79
2018-02-13T13:49:41.083Z,79
2018-02-13T13:50:46.262Z,79
2018-02-13T13:51:51.779Z,79
2018-02-13T13:52:56.992Z,79
2018-02-13T13:54:02.448Z,79
2018-02-13T13:55:07.934Z,79
2018-02-13T13:56:13.147Z,79
2018-02-13T13:57:18.365Z,79
2018-02-13T13:58:23.858Z,79
2018-02-13T13:59:29.327Z,79
2018-02-13T14:00:34.842Z,79
2018-02-13T14:01:40.293Z,79
2018-02-13T14:02:45.222Z,79
2018-02-13T14:03:50.488Z,79
2018-02-13T14:04:56.162Z,79
2018-02-13T14:06:00.784Z,79
2018-02-13T14:07:06.274Z,79
2018-02-13T14:08:11.751Z,79
2018-02-13T14:09:17.226Z,62
2018-02-13T14:10:22.810Z,62
2018-02-13T14:11:28.280Z,62
2018-02-13T14:12:33.850Z,62
2018-02-13T14:13:39.308Z,62
2018-02-13T14:14:44.837Z,62
2018-02-13T14:15:50.416Z,62
2018-02-13T14:16:55.196Z,62
2018-02-13T14:18:00.396Z,62
2018-02-13T14:19:06.159Z,62
2018-02-13T14:20:11.338Z,62
2018-02-13T14:21:16.738Z,79
2018-02-13T14:22:22.247Z,79
2018-02-13T14:23:27.448Z,79
2018-02-13T14:24:33.814Z,79
2018-02-13T14:25:39.012Z,79
2018-02-13T14:26:44.191Z,79
2018-02-13T14:27:49.959Z,79
2018-02-13T14:28:55.452Z,79
2018-02-13T14:30:00.364Z,79
2018-02-13T14:31:05.746Z,79
2018-02-13T14:32:10.896Z,79
2018-02-13T14:33:16.115Z,79
2018-02-13T14:34:21.336Z,79
2018-02-13T14:35:26.813Z,79
2018-02-13T14:36:32.581Z,79
2018-02-13T14:37:37.470Z,79
2018-02-13T14:38:42.819Z,79
2018-02-13T14:39:48.679Z,79
2018-02-13T14:40:54.165Z,79
2018-02-13T14:41:59.913Z,79
2018-02-13T14:43:05.402Z,79
2018-02-13T14:44:10.882Z,79
2018-02-13T14:45:16.074Z,79
2018-02-13T14:46:21.260Z,79
2018-02-13T14:47:26.188Z,79
2018-02-13T14:48:31.723Z,79
2018-02-13T14:49:36.930Z,79
2018-02-13T14:50:41.832Z,79
2018-02-13T14:51:47.602Z,79
2018-02-13T14:52:52.532Z,79
2018-02-13T14:53:57.450Z,79
2018-02-13T14:55:02.667Z,79
2018-02-13T14:56:07.791Z,79
2018-02-13T14:57:13.000Z,79
2018-02-13T14:58:18.654Z,79
2018-02-13T14:59:23.834Z,79
2018-02-13T15:00:29.734Z,79
2018-02-13T15:01:34.057Z,79
2018-02-13T15:02:38.959Z,62
2018-02-13T15:03:44.147Z,62
2018-02-13T15:04:49.619Z,62
2018-02-13T15:05:54.810Z,62
2018-02-13T15:07:00.034Z,79
2018-02-13T15:08:04.936Z,62
2018-02-13T15:09:09.579Z,79
2018-02-13T15:10:14.785Z,79
2018-02-13T15:11:20.012Z,79
2018-02-13T15:12:40.141Z,79
2018-02-13T15:13:45.821Z,79
2018-02-13T15:14:51.011Z,79
2018-02-13T15:15:57.019Z,62
2018-02-13T15:17:02.188Z,62
2018-02-13T15:18:07.398Z,62
2018-02-13T15:19:13.465Z,62
2018-02-13T15:20:18.802Z,62
2018-02-13T15:21:39.351Z,62
2018-02-13T15:22:44.250Z,62
2018-02-13T15:23:49.156Z,62
2018-02-13T15:24:55.028Z,62
2018-02-13T15:26:00.206Z,62
2018-02-13T15:27:05.396Z,62
2018-02-13T15:28:11.180Z,88
2018-02-13T15:29:16.362Z,88
2018-02-13T15:30:21.828Z,72
2018-02-13T15:31:27.753Z,72
2018-02-13T15:32:32.945Z,72
2018-02-13T15:33:38.432Z,72
2018-02-13T15:34:43.328Z,72
2018-02-13T15:35:48.799Z,72
2018-02-13T15:36:53.869Z,55
2018-02-13T15:37:59.062Z,55
2018-02-13T15:39:04.535Z,55
2018-02-13T15:40:10.070Z,55
2018-02-13T15:41:14.968Z,55
2018-02-13T15:42:20.498Z,55
2018-02-13T15:43:40.778Z,55